createdAt,value
2018-07-19T00:00:18.606Z,60.98
2018-07-19T00:01:18.553Z,60.68
2018-07-19T00:02:18.719Z,61.41
2018-07-19T00:03:18.528Z,61.82
2018-07-19T00:04:18.517Z,61.71
2018-07-19T00:05:18.505Z,61.51
2018-07-19T00:06:18.493Z,62.62
2018-07-19T00:07:18.491Z,63.22
2018-07-19T00:08:18.669Z,62.92
2018-07-19T00:09:18.461Z,63.93
2018-07-19T00:10:18.457Z,63.73
2018-07-19T00:11:18.443Z,64.23
2018-07-19T00:12:18.428Z,63.93
2018-07-19T00:13:18.418Z,64.73
2018-07-19T00:14:18.447Z,64.43
2018-07-19T00:15:18.425Z,64.73
2018-07-19T00:16:18.385Z,64.23
2018-07-19T00:17:18.372Z,64.26
2018-07-19T00:18:18.366Z,64.63
2018-07-19T00:19:18.399Z,64.56
2018-07-19T00:20:18.352Z,64.36
2018-07-19T00:21:18.327Z,64.46
2018-07-19T00:22:18.320Z,64.76
2018-07-19T00:23:18.313Z,63.76
2018-07-19T00:24:18.300Z,62.55
2018-07-19T00:25:18.323Z,63.35
2018-07-19T00:26:18.276Z,63.15
2018-07-19T00:27:18.263Z,63.35
2018-07-19T00:28:18.259Z,62.95
2018-07-19T00:29:18.252Z,63.35
2018-07-19T00:30:18.278Z,63.76
2018-07-19T00:31:18.224Z,63.89
2018-07-19T00:32:18.212Z,63.65
2018-07-19T00:33:18.220Z,63.39
2018-07-19T00:34:18.198Z,63.79
2018-07-19T00:35:18.176Z,64.29
2018-07-19T00:36:18.199Z,63.89
2018-07-19T00:37:18.159Z,64.69
2018-07-19T00:38:18.141Z,64.19
2018-07-19T00:39:18.131Z,64.49
2018-07-19T00:40:18.130Z,64.19
2018-07-19T00:41:18.155Z,64.29
2018-07-19T00:42:18.099Z,65.09
2018-07-19T00:43:18.094Z,63.89
2018-07-19T00:44:18.074Z,64.39
2018-07-19T00:45:18.069Z,63.92
2018-07-19T00:46:18.052Z,64.12
2018-07-19T00:47:18.075Z,64.02
2018-07-19T00:48:18.038Z,64.19
2018-07-19T00:49:18.036Z,65.19
2018-07-19T00:50:18.014Z,64.52
2018-07-19T00:51:17.997Z,65.33
2018-07-19T00:52:18.130Z,65.19
2018-07-19T00:53:17.993Z,65.53
2018-07-19T00:54:17.971Z,65.83
2018-07-19T00:55:17.952Z,65.39
2018-07-19T00:56:17.941Z,66.13
2018-07-19T00:57:17.930Z,66.03
2018-07-19T00:58:17.952Z,66.23
2018-07-19T00:59:17.926Z,66.03
2018-07-19T01:00:17.906Z,66.03
2018-07-19T01:01:17.886Z,65.90
2018-07-19T01:02:17.877Z,66.43
2018-07-19T01:03:18.066Z,66.23
2018-07-19T01:04:17.863Z,66.63
2018-07-19T01:05:17.865Z,66.33
2018-07-19T01:06:17.837Z,65.83
2018-07-19T01:07:17.822Z,65.12
2018-07-19T01:08:17.810Z,65.12
2018-07-19T01:09:17.833Z,65.62
2018-07-19T01:10:17.791Z,64.82
2018-07-19T01:11:17.776Z,65.53
2018-07-19T01:12:17.781Z,65.83
2018-07-19T01:13:17.757Z,65.42
2018-07-19T01:14:17.799Z,65.42
2018-07-19T01:15:17.735Z,65.42
2018-07-19T01:16:17.724Z,65.02
2018-07-19T01:17:17.720Z,65.42
2018-07-19T01:18:17.722Z,65.12
2018-07-19T01:19:17.696Z,64.92
2018-07-19T01:20:17.729Z,64.92
2018-07-19T01:21:17.668Z,65.22
2018-07-19T01:22:17.674Z,65.16
2018-07-19T01:23:17.652Z,64.45
2018-07-19T01:24:17.636Z,64.86
2018-07-19T01:25:17.627Z,65.16
2018-07-19T01:26:17.650Z,65.86
2018-07-19T01:27:17.606Z,65.62
2018-07-19T01:28:17.596Z,65.66
2018-07-19T01:29:17.593Z,65.42
2018-07-19T01:30:17.572Z,65.96
2018-07-19T01:31:17.704Z,65.06
2018-07-19T01:32:17.567Z,65.16
2018-07-19T01:33:17.549Z,65.96
2018-07-19T01:34:17.532Z,65.26
2018-07-19T01:35:17.526Z,65.76
2018-07-19T01:36:17.507Z,65.76
2018-07-19T01:37:17.532Z,65.46
2018-07-19T01:38:17.486Z,65.56
2018-07-19T01:39:17.499Z,65.56
2018-07-19T01:40:17.466Z,65.26
2018-07-19T01:41:17.456Z,65.06
2018-07-19T01:42:17.500Z,64.95
2018-07-19T01:43:17.436Z,65.16
2018-07-19T01:44:17.436Z,65.06
2018-07-19T01:45:17.465Z,65.16
2018-07-19T01:46:17.427Z,65.19
2018-07-19T01:47:17.388Z,65.26
2018-07-19T01:48:17.414Z,65.19
2018-07-19T01:49:17.366Z,65.19
2018-07-19T01:50:17.362Z,64.69
2018-07-19T01:51:17.351Z,65.49
2018-07-19T01:52:17.340Z,65.09
2018-07-19T01:53:17.465Z,65.19
2018-07-19T01:54:17.318Z,65.59
2018-07-19T01:55:17.302Z,65.59
2018-07-19T01:56:17.308Z,65.89
2018-07-19T01:57:17.288Z,65.99
2018-07-19T01:58:17.278Z,65.89
2018-07-19T01:59:17.316Z,65.99
2018-07-19T02:00:17.254Z,65.59
2018-07-19T02:01:17.239Z,65.29
2018-07-19T02:02:17.232Z,65.79
2018-07-19T02:03:17.241Z,65.12
2018-07-19T02:04:17.225Z,65.62
2018-07-19T02:05:17.236Z,66.22
2018-07-19T02:06:17.188Z,65.72
2018-07-19T02:07:17.180Z,65.42
2018-07-19T02:08:17.174Z,65.01
2018-07-19T02:09:17.156Z,65.01
2018-07-19T02:10:17.188Z,65.32
2018-07-19T02:11:17.148Z,65.01
2018-07-19T02:12:17.125Z,66.02
2018-07-19T02:13:17.117Z,66.22
2018-07-19T02:14:17.102Z,66.22
2018-07-19T02:15:17.301Z,66.22
2018-07-19T02:16:17.083Z,66.02
2018-07-19T02:17:17.067Z,66.13
2018-07-19T02:18:17.071Z,66.33
2018-07-19T02:19:17.060Z,66.22
2018-07-19T02:20:17.039Z,66.86
2018-07-19T02:21:17.228Z,66.66
2018-07-19T02:22:17.012Z,66.76
2018-07-19T02:23:17.003Z,66.56
2018-07-19T02:24:16.991Z,66.66
2018-07-19T02:25:16.988Z,66.76
2018-07-19T02:26:17.016Z,66.96
2018-07-19T02:27:17.007Z,66.66
2018-07-19T02:28:16.953Z,66.76
2018-07-19T02:29:16.944Z,66.56
2018-07-19T02:30:16.947Z,66.86
2018-07-19T02:31:16.928Z,66.96
2018-07-19T02:32:17.113Z,66.66
2018-07-19T02:33:16.913Z,66.96
2018-07-19T02:34:16.883Z,66.66
2018-07-19T02:35:16.877Z,66.76
2018-07-19T02:36:16.869Z,66.36
2018-07-19T02:37:16.851Z,66.99
2018-07-19T02:38:16.889Z,67.19
2018-07-19T02:39:16.836Z,67.40
2018-07-19T02:40:16.819Z,67.10
2018-07-19T02:41:16.822Z,67.50
2018-07-19T02:42:16.799Z,68.21
2018-07-19T02:43:16.929Z,68.51
2018-07-19T02:44:16.786Z,69.21
2018-07-19T02:45:16.799Z,69.31
2018-07-19T02:46:16.763Z,69.92
2018-07-19T02:47:16.746Z,69.72
2018-07-19T02:48:16.747Z,69.62
2018-07-19T02:49:17.094Z,70.22
2018-07-19T02:50:16.714Z,70.42
2018-07-19T02:51:16.701Z,70.06
2018-07-19T02:52:16.704Z,70.96
2018-07-19T02:53:16.679Z,71.26
2018-07-19T02:54:16.683Z,71.37
2018-07-19T02:55:16.692Z,71.47
2018-07-19T02:56:16.654Z,70.86
2018-07-19T02:57:16.639Z,70.15
2018-07-19T02:58:16.631Z,70.06
2018-07-19T02:59:16.615Z,69.65
2018-07-19T03:00:16.646Z,69.15
2018-07-19T03:01:16.597Z,69.24
2018-07-19T03:02:16.634Z,69.24
2018-07-19T03:03:16.580Z,69.15
2018-07-19T03:04:16.585Z,68.84
2018-07-19T03:05:16.693Z,69.35
2018-07-19T03:06:16.547Z,68.87
2018-07-19T03:07:16.532Z,69.55
2018-07-19T03:08:16.531Z,69.08
2018-07-19T03:09:16.512Z,69.24
2018-07-19T03:10:16.498Z,69.15
2018-07-19T03:11:16.536Z,69.24
2018-07-19T03:12:16.478Z,69.18
2018-07-19T03:13:16.467Z,69.85
2018-07-19T03:14:16.470Z,69.55
2018-07-19T03:15:16.449Z,69.65
2018-07-19T03:16:16.432Z,69.35
2018-07-19T03:17:16.457Z,69.95
2018-07-19T03:18:16.416Z,69.85
2018-07-19T03:19:16.413Z,69.65
2018-07-19T03:20:16.399Z,69.68
2018-07-19T03:21:16.383Z,69.78
2018-07-19T03:22:16.731Z,69.58
2018-07-19T03:23:16.362Z,70.09
2018-07-19T03:24:16.351Z,70.09
2018-07-19T03:25:16.340Z,70.29
2018-07-19T03:26:16.327Z,69.68
2018-07-19T03:27:16.611Z,69.85
2018-07-19T03:28:16.314Z,69.78
2018-07-19T03:29:16.297Z,70.29
2018-07-19T03:30:16.296Z,70.19
2018-07-19T03:31:16.288Z,70.59
2018-07-19T03:32:16.267Z,70.39
2018-07-19T03:33:16.294Z,70.19
2018-07-19T03:34:16.246Z,70.49
2018-07-19T03:35:16.232Z,70.09
2018-07-19T03:36:16.218Z,70.19
2018-07-19T03:37:16.265Z,69.78
2018-07-19T03:38:16.198Z,69.98
2018-07-19T03:39:16.184Z,69.68
2018-07-19T03:40:16.288Z,69.78
2018-07-19T03:41:16.171Z,69.78
2018-07-19T03:42:16.169Z,70.39
2018-07-19T03:43:16.323Z,69.68
2018-07-19T03:44:16.132Z,69.98
2018-07-19T03:45:16.119Z,69.78
2018-07-19T03:46:16.111Z,69.68
2018-07-19T03:47:16.097Z,69.18
2018-07-19T03:48:16.089Z,69.38
2018-07-19T03:49:16.114Z,68.77
2018-07-19T03:50:16.073Z,69.48
2018-07-19T03:51:16.056Z,69.08
2018-07-19T03:52:16.043Z,68.98
2018-07-19T03:53:16.075Z,68.47
2018-07-19T03:54:16.079Z,68.17
2018-07-19T03:55:16.013Z,68.27
2018-07-19T03:56:16.008Z,69.08
2018-07-19T03:57:15.989Z,69.58
2018-07-19T03:58:15.979Z,69.08
2018-07-19T03:59:15.971Z,68.37
2018-07-19T04:00:15.995Z,68.17
2018-07-19T04:01:15.975Z,67.76
2018-07-19T04:02:15.938Z,67.66
2018-07-19T04:03:15.929Z,67.33
2018-07-19T04:04:15.924Z,67.46
2018-07-19T04:05:15.949Z,68.27
2018-07-19T04:06:15.915Z,68.47
2018-07-19T04:07:15.912Z,68.84
2018-07-19T04:08:15.873Z,69.38
2018-07-19T04:09:15.872Z,68.95
2018-07-19T04:10:15.880Z,67.33
2018-07-19T04:11:15.987Z,67.36
2018-07-19T04:12:15.825Z,67.23
2018-07-19T04:13:15.846Z,67.13
2018-07-19T04:14:15.809Z,67.16
2018-07-19T04:15:15.800Z,67.13
2018-07-19T04:16:15.799Z,67.33
2018-07-19T04:17:15.805Z,67.13
2018-07-19T04:18:15.776Z,66.82
2018-07-19T04:19:15.749Z,66.72
2018-07-19T04:20:15.740Z,66.42
2018-07-19T04:21:15.731Z,66.22
2018-07-19T04:22:15.757Z,66.42
2018-07-19T04:23:15.719Z,66.22
2018-07-19T04:24:15.696Z,66.32
2018-07-19T04:25:15.722Z,66.02
2018-07-19T04:26:15.689Z,66.42
2018-07-19T04:27:15.738Z,66.62
2018-07-19T04:28:15.674Z,66.02
2018-07-19T04:29:15.645Z,65.11
2018-07-19T04:30:15.635Z,65.08
2018-07-19T04:31:15.625Z,65.28
2018-07-19T04:32:15.661Z,65.08
2018-07-19T04:33:15.791Z,65.18
2018-07-19T04:34:15.606Z,65.08
2018-07-19T04:35:15.593Z,65.18
2018-07-19T04:36:15.569Z,64.67
2018-07-19T04:37:15.568Z,65.48
2018-07-19T04:38:15.574Z,64.87
2018-07-19T04:39:15.575Z,65.18
2018-07-19T04:40:15.526Z,64.44
2018-07-19T04:41:15.519Z,64.24
2018-07-19T04:42:15.505Z,63.73
2018-07-19T04:43:15.492Z,63.64
2018-07-19T04:44:15.514Z,63.93
2018-07-19T04:45:15.472Z,63.64
2018-07-19T04:46:15.473Z,63.33
2018-07-19T04:47:15.450Z,63.43
2018-07-19T04:48:15.456Z,63.10
2018-07-19T04:49:15.618Z,62.80
2018-07-19T04:50:15.415Z,63.00
2018-07-19T04:51:15.411Z,62.19
2018-07-19T04:52:15.403Z,61.49
2018-07-19T04:53:15.385Z,61.99
2018-07-19T04:54:15.377Z,61.29
2018-07-19T04:55:15.633Z,61.05
2018-07-19T04:56:15.395Z,61.56
2018-07-19T04:57:15.344Z,61.33
2018-07-19T04:58:15.343Z,60.72
2018-07-19T04:59:15.327Z,60.52
2018-07-19T05:00:15.365Z,60.29
2018-07-19T05:01:15.367Z,61.40
2018-07-19T05:02:15.295Z,59.08
2018-07-19T05:03:15.313Z,59.48
2018-07-19T05:04:15.273Z,59.19
2018-07-19T05:05:15.286Z,59.28
2018-07-19T05:06:15.290Z,59.19
2018-07-19T05:07:15.237Z,59.59
2018-07-19T05:08:15.263Z,59.28
2018-07-19T05:09:15.300Z,59.36
2018-07-19T05:10:15.200Z,58.35
2018-07-19T05:11:15.557Z,58.45
2018-07-19T05:12:15.211Z,58.45
2018-07-19T05:13:15.170Z,58.35
2018-07-19T05:14:15.160Z,58.25
2018-07-19T05:15:15.165Z,57.95
2018-07-19T05:16:15.135Z,57.62
2018-07-19T05:17:15.172Z,58.02
2018-07-19T05:18:15.125Z,57.22
2018-07-19T05:19:15.111Z,57.62
2018-07-19T05:20:15.090Z,57.29
2018-07-19T05:21:15.092Z,57.39
2018-07-19T05:22:15.071Z,57.19
2018-07-19T05:23:15.178Z,57.09
2018-07-19T05:24:15.048Z,57.09
2018-07-19T05:25:15.056Z,56.89
2018-07-19T05:26:15.032Z,56.29
2018-07-19T05:27:15.017Z,56.49
2018-07-19T05:28:15.036Z,56.96
2018-07-19T05:29:15.040Z,57.26
2018-07-19T05:30:14.998Z,55.55
2018-07-19T05:31:14.986Z,55.55
2018-07-19T05:32:14.969Z,55.26
2018-07-19T05:33:14.950Z,55.35
2018-07-19T05:34:15.037Z,55.03
2018-07-19T05:35:14.938Z,56.36
2018-07-19T05:36:14.924Z,55.73
2018-07-19T05:37:14.918Z,56.23
2018-07-19T05:38:14.901Z,54.53
2018-07-19T05:39:14.938Z,55.03
2018-07-19T05:40:14.873Z,55.53
2018-07-19T05:41:14.869Z,55.23
2018-07-19T05:42:14.885Z,55.51
2018-07-19T05:43:14.857Z,56.34
2018-07-19T05:44:14.838Z,55.83
2018-07-19T05:45:15.006Z,55.23
2018-07-19T05:46:14.815Z,54.80
2018-07-19T05:47:14.812Z,55.40
2018-07-19T05:48:14.791Z,54.50
2018-07-19T05:49:14.785Z,54.90
2018-07-19T05:50:14.802Z,54.90
2018-07-19T05:51:14.816Z,54.50
2018-07-19T05:52:14.752Z,54.40
2018-07-19T05:53:14.735Z,54.47
2018-07-19T05:54:14.774Z,54.00
2018-07-19T05:55:14.716Z,53.70
2018-07-19T05:56:14.755Z,54.38
2018-07-19T05:57:14.690Z,54.38
2018-07-19T05:58:14.721Z,54.58
2018-07-19T05:59:14.673Z,53.27
2018-07-19T06:00:14.659Z,53.95
2018-07-19T06:01:14.651Z,52.64
2018-07-19T06:02:14.675Z,52.44
2018-07-19T06:03:14.632Z,52.84
2018-07-19T06:04:14.630Z,53.62
2018-07-19T06:05:14.629Z,52.44
2018-07-19T06:06:14.601Z,52.64
2018-07-19T06:07:14.590Z,53.34
2018-07-19T06:08:14.608Z,52.14
2018-07-19T06:09:14.562Z,52.12
2018-07-19T06:10:14.552Z,52.42
2018-07-19T06:11:14.546Z,51.54
2018-07-19T06:12:14.528Z,50.62
2018-07-19T06:13:14.549Z,51.12
2018-07-19T06:14:14.545Z,50.81
2018-07-19T06:15:14.513Z,51.21
2018-07-19T06:16:14.572Z,50.42
2018-07-19T06:17:14.475Z,50.92
2018-07-19T06:18:14.518Z,50.71
2018-07-19T06:19:14.452Z,50.51
2018-07-19T06:20:14.441Z,51.09
2018-07-19T06:21:14.436Z,50.42
2018-07-19T06:22:14.421Z,51.21
2018-07-19T06:23:14.408Z,50.51
2018-07-19T06:24:14.442Z,51.51
2018-07-19T06:25:14.392Z,51.42
2018-07-19T06:26:14.376Z,50.71
2018-07-19T06:27:14.378Z,50.79
2018-07-19T06:28:14.355Z,50.62
2018-07-19T06:29:14.343Z,50.49
2018-07-19T06:30:14.522Z,50.59
2018-07-19T06:31:14.322Z,50.89
2018-07-19T06:32:14.309Z,50.09
2018-07-19T06:33:14.299Z,50.59
2018-07-19T06:34:14.290Z,50.69
2018-07-19T06:35:14.281Z,50.79
2018-07-19T06:36:14.297Z,50.99
2018-07-19T06:37:14.258Z,50.49
2018-07-19T06:38:14.244Z,50.79
2018-07-19T06:39:14.234Z,50.69
2018-07-19T06:40:14.225Z,50.59
2018-07-19T06:41:14.358Z,50.39
2018-07-19T06:42:14.206Z,50.69
2018-07-19T06:43:14.187Z,51.39
2018-07-19T06:44:14.182Z,50.39
2018-07-19T06:45:14.167Z,50.49
2018-07-19T06:46:14.196Z,50.79
2018-07-19T06:47:14.148Z,50.16
2018-07-19T06:48:14.139Z,49.87
2018-07-19T06:49:14.125Z,50.16
2018-07-19T06:50:14.112Z,49.57
2018-07-19T06:51:14.107Z,49.96
2018-07-19T06:52:14.271Z,49.96
2018-07-19T06:53:14.086Z,49.66
2018-07-19T06:54:14.103Z,50.16
2018-07-19T06:55:14.060Z,49.66
2018-07-19T06:56:14.069Z,49.66
2018-07-19T06:57:14.048Z,48.96
2018-07-19T06:58:14.059Z,50.26
2018-07-19T06:59:14.020Z,50.16
2018-07-19T07:00:14.009Z,49.07
2018-07-19T07:01:14.000Z,49.54
2018-07-19T07:02:13.984Z,49.24
2018-07-19T07:03:14.022Z,49.14
2018-07-19T07:04:13.963Z,48.64
2018-07-19T07:05:13.963Z,48.54
2018-07-19T07:06:13.947Z,49.22
2018-07-19T07:07:13.931Z,49.32
2018-07-19T07:08:14.120Z,48.92
2018-07-19T07:09:13.910Z,49.41
2018-07-19T07:10:13.902Z,48.52
2018-07-19T07:11:13.893Z,48.61
2018-07-19T07:12:13.904Z,48.49
2018-07-19T07:13:13.959Z,49.09
2018-07-19T07:14:13.907Z,47.60
2018-07-19T07:15:13.871Z,47.69
2018-07-19T07:16:13.837Z,49.09
2018-07-19T07:17:13.834Z,48.10
2018-07-19T07:18:13.825Z,47.69
2018-07-19T07:19:13.803Z,48.77
2018-07-19T07:20:13.850Z,47.67
2018-07-19T07:21:13.857Z,49.67
2018-07-19T07:22:13.777Z,48.87
2018-07-19T07:23:13.764Z,47.57
2018-07-19T07:24:13.763Z,47.65
2018-07-19T07:25:13.739Z,47.65
2018-07-19T07:26:13.780Z,46.85
2018-07-19T07:27:13.733Z,46.75
2018-07-19T07:28:13.769Z,47.65
2018-07-19T07:29:13.705Z,47.22
2018-07-19T07:30:13.721Z,47.13
2018-07-19T07:31:13.676Z,46.53
2018-07-19T07:32:13.669Z,46.53
2018-07-19T07:33:13.674Z,46.73
2018-07-19T07:34:13.698Z,47.13
2018-07-19T07:35:13.828Z,47.53
2018-07-19T07:36:13.629Z,47.33
2018-07-19T07:37:13.611Z,47.13
2018-07-19T07:38:13.611Z,46.92
2018-07-19T07:39:13.593Z,46.92
2018-07-19T07:40:13.586Z,46.83
2018-07-19T07:41:13.625Z,47.13
2018-07-19T07:42:13.557Z,47.10
2018-07-19T07:43:13.546Z,47.53
2018-07-19T07:44:13.598Z,47.20
2018-07-19T07:45:13.535Z,46.23
2018-07-19T07:46:13.523Z,46.35
2018-07-19T07:47:13.551Z,47.37
2018-07-19T07:48:13.491Z,47.30
2018-07-19T07:49:13.483Z,48.07
2018-07-19T07:50:13.489Z,47.57
2018-07-19T07:51:13.457Z,47.47
2018-07-19T07:52:13.454Z,47.65
2018-07-19T07:53:13.479Z,47.55
2018-07-19T07:54:13.464Z,46.75
2018-07-19T07:55:13.435Z,46.65
2018-07-19T07:56:13.415Z,46.83
2018-07-19T07:57:13.401Z,46.73
2018-07-19T07:58:13.428Z,46.70
2018-07-19T07:59:13.390Z,45.93
2018-07-19T08:00:13.362Z,45.83
2018-07-19T08:01:13.371Z,47.42
2018-07-19T08:02:13.359Z,47.33
2018-07-19T08:03:13.478Z,47.03
2018-07-19T08:04:13.327Z,47.10
2018-07-19T08:05:13.311Z,46.01
2018-07-19T08:06:13.300Z,46.48
2018-07-19T08:07:13.294Z,46.76
2018-07-19T08:08:13.274Z,46.08
2018-07-19T08:09:13.314Z,45.96
2018-07-19T08:10:13.255Z,45.54
2018-07-19T08:11:13.250Z,45.64
2018-07-19T08:12:13.241Z,45.82
2018-07-19T08:13:13.236Z,45.30
2018-07-19T08:14:13.224Z,44.60
2018-07-19T08:15:13.242Z,43.88
2018-07-19T08:16:13.225Z,43.29
2018-07-19T08:17:13.225Z,43.16
2018-07-19T08:18:13.172Z,42.75
2018-07-19T08:19:13.180Z,42.80
2018-07-19T08:20:13.194Z,41.69
2018-07-19T08:21:13.142Z,41.36
2018-07-19T08:22:13.131Z,39.93
2018-07-19T08:23:13.121Z,39.00
2018-07-19T08:24:13.121Z,37.77
2018-07-19T08:25:13.158Z,36.88
2018-07-19T08:26:13.098Z,35.94
2018-07-19T08:27:13.085Z,36.32
2018-07-19T08:28:13.074Z,36.19
2018-07-19T08:29:13.056Z,35.99
2018-07-19T08:30:13.055Z,35.27
2018-07-19T08:31:13.091Z,34.44
2018-07-19T08:32:13.037Z,34.31
2018-07-19T08:33:13.013Z,32.90
2018-07-19T08:34:13.026Z,32.89
2018-07-19T08:35:12.992Z,31.38
2018-07-19T08:36:13.081Z,31.07
2018-07-19T08:37:13.021Z,31.04
2018-07-19T08:38:12.971Z,30.23
2018-07-19T08:39:12.981Z,29.61
2018-07-19T08:40:12.978Z,29.50
2018-07-19T08:41:12.934Z,28.79
2018-07-19T08:42:12.988Z,27.89
2018-07-19T08:43:12.925Z,27.87
2018-07-19T08:44:12.942Z,27.56
2018-07-19T08:45:12.897Z,26.89
2018-07-19T08:46:12.893Z,27.18
2018-07-19T08:47:12.901Z,26.69
2018-07-19T08:48:12.904Z,26.86
2018-07-19T08:49:12.863Z,26.36
2018-07-19T08:50:12.856Z,26.34
2018-07-19T08:51:12.840Z,25.64
2018-07-19T08:52:12.930Z,24.84
2018-07-19T08:53:12.859Z,24.24
2018-07-19T08:54:12.818Z,24.63
2018-07-19T08:55:12.808Z,23.55
2018-07-19T08:56:12.829Z,24.44
2018-07-19T08:57:12.788Z,24.07
2018-07-19T08:58:12.855Z,24.87
2018-07-19T08:59:12.792Z,24.76
2018-07-19T09:00:12.774Z,23.47
2018-07-19T09:01:12.747Z,24.16
2018-07-19T09:02:12.746Z,24.52
2018-07-19T09:03:12.740Z,24.44
2018-07-19T09:04:12.932Z,24.23
2018-07-19T09:05:12.722Z,24.13
2018-07-19T09:06:12.707Z,24.22
2018-07-19T09:07:12.707Z,22.45
2018-07-19T09:08:12.694Z,22.92
2018-07-19T09:09:12.696Z,22.24
2018-07-19T09:10:12.706Z,21.83
2018-07-19T09:11:12.659Z,21.92
2018-07-19T09:12:12.664Z,21.42
2018-07-19T09:13:12.659Z,21.62
2018-07-19T09:14:12.715Z,21.07
2018-07-19T09:15:12.657Z,21.15
2018-07-19T09:16:12.618Z,21.04
2018-07-19T09:17:12.609Z,20.35
2018-07-19T09:18:12.629Z,19.18
2018-07-19T09:19:12.597Z,20.33
2018-07-19T09:20:12.627Z,19.25
2018-07-19T09:21:12.575Z,19.64
2018-07-19T09:22:12.564Z,19.63
2018-07-19T09:23:12.555Z,18.38
2018-07-19T09:24:12.565Z,18.48
2018-07-19T09:25:12.553Z,19.45
2018-07-19T09:26:12.696Z,19.55
2018-07-19T09:27:12.525Z,19.18
2018-07-19T09:28:12.516Z,19.65
2018-07-19T09:29:12.512Z,19.45
2018-07-19T09:30:12.495Z,18.95
2018-07-19T09:31:12.511Z,19.80
2018-07-19T09:32:12.532Z,19.20
2018-07-19T09:33:12.506Z,18.81
2018-07-19T09:34:12.461Z,17.94
2018-07-19T09:35:12.462Z,18.32
2018-07-19T09:36:12.478Z,18.89
2018-07-19T09:37:12.469Z,17.55
2018-07-19T09:38:12.451Z,18.11
2018-07-19T09:39:12.427Z,17.90
2018-07-19T09:40:12.411Z,17.33
2018-07-19T09:41:12.461Z,18.09
2018-07-19T09:42:12.428Z,18.01
2018-07-19T09:43:12.385Z,17.52
2018-07-19T09:44:12.383Z,18.20
2018-07-19T09:45:12.379Z,17.80
2018-07-19T09:46:12.366Z,17.33
2018-07-19T09:47:13.220Z,17.80
2018-07-19T09:48:12.406Z,18.00
2018-07-19T09:49:12.393Z,17.33
2018-07-19T09:50:12.481Z,17.53
2018-07-19T09:51:12.329Z,17.83
2018-07-19T09:52:12.346Z,17.17
2018-07-19T09:53:12.466Z,17.83
2018-07-19T09:54:12.474Z,18.33
2018-07-19T09:55:12.653Z,17.27
2018-07-19T09:56:12.447Z,18.23
2018-07-19T09:57:12.762Z,18.21
2018-07-19T09:58:12.475Z,18.00
2018-07-19T09:59:13.071Z,17.80
2018-07-19T10:00:13.005Z,17.52
2018-07-19T10:01:12.289Z,17.52
2018-07-19T10:02:12.387Z,17.90
2018-07-19T10:03:12.287Z,18.01
2018-07-19T10:04:12.481Z,18.00
2018-07-19T10:05:12.304Z,17.80
2018-07-19T10:06:12.274Z,18.20
2018-07-19T10:07:12.236Z,17.33
2018-07-19T10:08:12.331Z,17.33
2018-07-19T10:09:12.198Z,17.72
2018-07-19T10:10:12.229Z,17.53
2018-07-19T10:11:12.184Z,17.05
2018-07-19T10:12:12.180Z,16.58
2018-07-19T10:13:12.167Z,16.08
2018-07-19T10:14:12.159Z,16.86
2018-07-19T10:15:12.289Z,17.44
2018-07-19T10:16:12.146Z,16.66
2018-07-19T10:17:12.143Z,16.74
2018-07-19T10:18:12.131Z,16.94
2018-07-19T10:19:12.127Z,16.68
2018-07-19T10:20:12.138Z,17.88
2018-07-19T10:21:12.171Z,17.97
2018-07-19T10:22:12.107Z,17.90
2018-07-19T10:23:12.106Z,18.60
2018-07-19T10:24:12.102Z,18.71
2018-07-19T10:25:12.100Z,18.90
2018-07-19T10:26:12.226Z,19.07
2018-07-19T10:27:12.071Z,17.99
2018-07-19T10:28:12.069Z,18.66
2018-07-19T10:29:12.607Z,18.55
2018-07-19T10:30:12.138Z,17.47
2018-07-19T10:31:12.053Z,18.04
2018-07-19T10:32:12.139Z,17.25
2018-07-19T10:33:12.034Z,17.72
2018-07-19T10:34:12.096Z,16.94
2018-07-19T10:35:12.022Z,16.56
2018-07-19T10:36:12.027Z,16.66
2018-07-19T10:37:12.147Z,16.96
2018-07-19T10:38:11.999Z,17.05
2018-07-19T10:39:12.004Z,17.43
2018-07-19T10:40:12.001Z,17.52
2018-07-19T10:41:11.982Z,17.22
2018-07-19T10:42:11.992Z,17.24
2018-07-19T10:43:12.029Z,16.76
2018-07-19T10:44:11.954Z,17.24
2018-07-19T10:45:11.952Z,16.97
2018-07-19T10:46:11.984Z,17.54
2018-07-19T10:47:11.946Z,16.77
2018-07-19T10:48:11.998Z,17.45
2018-07-19T10:49:11.977Z,18.05
2018-07-19T10:50:11.968Z,18.85
2018-07-19T10:51:12.291Z,19.05
2018-07-19T10:52:11.912Z,18.26
2018-07-19T10:53:11.901Z,17.96
2018-07-19T10:54:12.085Z,18.13
2018-07-19T10:55:12.031Z,17.35
2018-07-19T10:56:11.879Z,17.43
2018-07-19T10:57:11.875Z,16.66
2018-07-19T10:58:11.874Z,17.52
2018-07-19T10:59:11.874Z,17.04
2018-07-19T11:00:11.887Z,16.84
2018-07-19T11:01:11.852Z,16.65
2018-07-19T11:02:12.169Z,15.97
2018-07-19T11:03:11.839Z,16.84
2018-07-19T11:04:11.834Z,16.64
2018-07-19T11:05:11.879Z,15.79
2018-07-19T11:06:11.868Z,16.78
2018-07-19T11:07:11.808Z,17.29
2018-07-19T11:08:11.811Z,18.29
2018-07-19T11:09:11.805Z,18.95
2018-07-19T11:10:11.794Z,19.12
2018-07-19T11:11:11.828Z,18.33
2018-07-19T11:12:11.818Z,17.25
2018-07-19T11:13:11.782Z,16.67
2018-07-19T11:14:11.769Z,16.37
2018-07-19T11:15:11.775Z,17.14
2018-07-19T11:16:11.935Z,16.65
2018-07-19T11:17:11.759Z,16.16
2018-07-19T11:18:11.887Z,16.24
2018-07-19T11:19:11.915Z,16.42
2018-07-19T11:20:11.776Z,16.24
2018-07-19T11:21:11.807Z,15.75
2018-07-19T11:22:11.913Z,16.04
2018-07-19T11:23:11.708Z,15.48
2018-07-19T11:24:11.709Z,15.67
2018-07-19T11:25:11.708Z,16.27
2018-07-19T11:26:11.717Z,16.56
2018-07-19T11:27:11.946Z,16.27
2018-07-19T11:28:11.675Z,15.59
2018-07-19T11:29:11.716Z,16.73
2018-07-19T11:30:11.807Z,15.57
2018-07-19T11:31:11.738Z,16.24
2018-07-19T11:32:11.654Z,16.14
2018-07-19T11:33:11.690Z,15.29
2018-07-19T11:34:11.705Z,15.95
2018-07-19T11:35:11.736Z,15.27
2018-07-19T11:36:11.687Z,15.48
2018-07-19T11:37:11.641Z,16.25
2018-07-19T11:38:12.002Z,16.08
2018-07-19T11:39:11.693Z,15.97
2018-07-19T11:40:11.602Z,16.06
2018-07-19T11:41:11.594Z,15.67
2018-07-19T11:42:11.856Z,15.95
2018-07-19T11:43:11.584Z,15.83
2018-07-19T11:44:11.623Z,15.16
2018-07-19T11:45:12.006Z,16.01
2018-07-19T11:46:11.570Z,15.66
2018-07-19T11:47:11.599Z,16.53
2018-07-19T11:48:11.583Z,15.80
2018-07-19T11:49:11.607Z,17.57
2018-07-19T11:50:12.124Z,16.89
2018-07-19T11:51:11.534Z,16.67
2018-07-19T11:52:11.527Z,16.50
2018-07-19T11:53:11.569Z,17.49
2018-07-19T11:54:11.513Z,17.10
2018-07-19T11:55:11.582Z,18.08
2018-07-19T11:56:11.502Z,18.20
2018-07-19T11:57:11.532Z,18.90
2018-07-19T11:58:11.577Z,18.60
2018-07-19T11:59:11.481Z,18.29
2018-07-19T12:00:11.857Z,18.10
2018-07-19T12:01:11.497Z,18.32
2018-07-19T12:02:11.468Z,18.24
2018-07-19T12:03:11.457Z,18.52
2018-07-19T12:04:11.493Z,18.79
2018-07-19T12:05:11.438Z,18.29
2018-07-19T12:06:11.533Z,18.30
2018-07-19T12:07:11.426Z,18.70
2018-07-19T12:08:11.421Z,19.57
2018-07-19T12:09:11.442Z,18.97
2018-07-19T12:10:11.428Z,18.26
2018-07-19T12:11:11.403Z,17.27
2018-07-19T12:12:11.433Z,16.68
2018-07-19T12:13:11.388Z,16.40
2018-07-19T12:14:11.472Z,16.71
2018-07-19T12:15:11.391Z,16.70
2018-07-19T12:16:11.370Z,16.98
2018-07-19T12:17:11.426Z,17.43
2018-07-19T12:18:11.362Z,15.99
2018-07-19T12:19:11.362Z,16.28
2018-07-19T12:20:11.376Z,17.71
2018-07-19T12:21:11.331Z,19.05
2018-07-19T12:22:11.326Z,19.46
2018-07-19T12:23:11.353Z,20.73
2018-07-19T12:24:11.331Z,21.10
2018-07-19T12:25:11.309Z,19.92
2018-07-19T12:26:11.301Z,19.21
2018-07-19T12:27:11.292Z,19.12
2018-07-19T12:28:11.637Z,19.40
2018-07-19T12:29:11.299Z,19.31
2018-07-19T12:30:11.268Z,19.59
2018-07-19T12:31:11.308Z,19.12
2018-07-19T12:32:11.277Z,18.82
2018-07-19T12:33:11.250Z,19.38
2018-07-19T12:34:11.625Z,18.23
2018-07-19T12:35:11.247Z,19.52
2018-07-19T12:36:11.252Z,19.13
2018-07-19T12:37:11.226Z,18.82
2018-07-19T12:38:11.210Z,19.00
2018-07-19T12:39:11.447Z,18.32
2018-07-19T12:40:11.197Z,17.91
2018-07-19T12:41:11.189Z,17.90
2018-07-19T12:42:11.190Z,18.07
2018-07-19T12:43:11.188Z,17.29
2018-07-19T12:44:11.175Z,16.99
2018-07-19T12:45:11.188Z,17.36
2018-07-19T12:46:11.153Z,16.58
2018-07-19T12:47:11.146Z,17.57
2018-07-19T12:48:11.215Z,17.27
2018-07-19T12:49:11.163Z,16.78
2018-07-19T12:50:11.168Z,16.66
2018-07-19T12:51:11.121Z,15.89
2018-07-19T12:52:11.187Z,16.36